This is the latest recevied weather packets stored in our database for station/object OE-11061. If no packets are shown the sender has not sent any weather packets the latest 10 day(s).
| Time | Temp. | Humidity | Pressure | Rain* | Wind** | Luminosity | Snow |
|---|---|---|---|---|---|---|---|
| 1787831720 | 27.78° C | 60% | 1013.1 hPa | 0 mm | - | 553 W/m² | - |
| 1787830894 | 27.78° C | 55% | 1013.1 hPa | 0 mm | - | 724 W/m² | - |
| 1787830520 | 27.78° C | 58% | 1013.2 hPa | 0 mm | - | 754 W/m² | - |
| 1787829920 | 27.22° C | 58% | 1013.4 hPa | 0 mm | - | 747 W/m² | - |
| 1787829094 | 27.22° C | 58% | 1013.4 hPa | 0 mm | - | 754 W/m² | - |
| 1787828721 | 26.67° C | 58% | 1013.5 hPa | 0 mm | - | 732 W/m² | - |
| 1787828121 | 27.22° C | 60% | 1013.4 hPa | 0 mm | - | 777 W/m² | - |
| 1787827293 | 27.22° C | 60% | 1013.3 hPa | 0 mm | - | 784 W/m² | - |
| 1787826920 | 26.67° C | 62% | 1013.6 hPa | 0 mm | - | 672 W/m² | - |
| 1787826321 | 25.56° C | 63% | 1014 hPa | 0 mm | - | 568 W/m² | - |
| 1787825494 | 26.11° C | 60% | 1013.9 hPa | 0 mm | - | 739 W/m² | - |
| 1787825121 | 25.56° C | 63% | 1013.9 hPa | 0 mm | - | 538 W/m² | - |
| 1787824521 | 24.44° C | 66% | 1014.2 hPa | 0 mm | - | 314 W/m² | - |
| 1787823694 | 25° C | 65% | 1014.1 hPa | 0 mm | - | 463 W/m² | - |
| 1787823321 | 25° C | 65% | 1013.8 hPa | 0 mm | - | 523 W/m² | - |
| 1787822720 | 25° C | 66% | 1013.8 hPa | 0 mm | - | 523 W/m² | - |
| 1787821894 | 23.89° C | 67% | 1014 hPa | 0 mm | - | 403 W/m² | - |
| 1787821520 | 24.44° C | 65% | 1014 hPa | 0 mm | - | 605 W/m² | - |
| 1787820921 | 23.89° C | 65% | 1014.2 hPa | 0 mm | - | 605 W/m² | - |
| 1787820094 | 23.89° C | 66% | 1014 hPa | 0 mm | - | 575 W/m² | - |
| 1787819721 | 23.89° C | 68% | 1014.2 hPa | 0 mm | - | 538 W/m² | - |
| 1787819121 | 23.33° C | 70% | 1014.2 hPa | 0 mm | - | 508 W/m² | - |
| 1787818294 | 23.33° C | 68% | 1014.3 hPa | 0 mm | - | 493 W/m² | - |
| 1787817920 | 23.33° C | 70% | 1014.2 hPa | 0 mm | - | 508 W/m² | - |
| 1787817320 | 22.78° C | 72% | 1014.4 hPa | 0 mm | - | 470 W/m² | - |
* Rain latest hour (hover to see other rain measurements)
** Current wind speed in m/s (hover to see current wind gust speed)